sensor_id;sensor_type;location;lat;lon;timestamp;P1;durP1;ratioP1;P2;durP2;ratioP2
15482;SDS011;7843;50.330;7.312;2023-04-24T00:00:46;1.00;;;0.50;;
15482;SDS011;7843;50.330;7.312;2023-04-24T00:03:13;1.77;;;0.40;;
15482;SDS011;7843;50.330;7.312;2023-04-24T00:05:40;0.33;;;0.30;;
15482;SDS011;7843;50.330;7.312;2023-04-24T00:08:07;0.30;;;0.20;;
15482;SDS011;7843;50.330;7.312;2023-04-24T00:10:33;0.30;;;0.30;;
15482;SDS011;7843;50.330;7.312;2023-04-24T00:13:00;2.00;;;0.20;;
15482;SDS011;7843;50.330;7.312;2023-04-24T00:15:28;1.60;;;0.30;;
15482;SDS011;7843;50.330;7.312;2023-04-24T00:17:54;1.10;;;0.30;;
15482;SDS011;7843;50.330;7.312;2023-04-24T00:20:21;1.50;;;0.30;;
15482;SDS011;7843;50.330;7.312;2023-04-24T00:22:48;0.20;;;0.20;;
15482;SDS011;7843;50.330;7.312;2023-04-24T00:25:15;0.43;;;0.40;;
15482;SDS011;7843;50.330;7.312;2023-04-24T00:27:42;0.65;;;0.35;;
15482;SDS011;7843;50.330;7.312;2023-04-24T00:30:09;2.30;;;0.40;;
15482;SDS011;7843;50.330;7.312;2023-04-24T00:32:36;0.50;;;0.30;;
15482;SDS011;7843;50.330;7.312;2023-04-24T00:35:02;0.40;;;0.28;;
15482;SDS011;7843;50.330;7.312;2023-04-24T00:37:29;0.68;;;0.20;;
15482;SDS011;7843;50.330;7.312;2023-04-24T00:39:56;0.70;;;0.30;;
15482;SDS011;7843;50.330;7.312;2023-04-24T00:42:23;1.10;;;0.20;;
15482;SDS011;7843;50.330;7.312;2023-04-24T00:44:50;0.40;;;0.20;;
15482;SDS011;7843;50.330;7.312;2023-04-24T00:47:17;2.60;;;0.32;;
15482;SDS011;7843;50.330;7.312;2023-04-24T00:49:45;0.55;;;0.50;;
15482;SDS011;7843;50.330;7.312;2023-04-24T00:52:12;0.30;;;0.30;;
15482;SDS011;7843;50.330;7.312;2023-04-24T00:54:44;0.40;;;0.20;;
15482;SDS011;7843;50.330;7.312;2023-04-24T00:57:14;1.30;;;0.70;;
15482;SDS011;7843;50.330;7.312;2023-04-24T00:59:41;0.23;;;0.20;;
15482;SDS011;7843;50.330;7.312;2023-04-24T01:02:09;0.35;;;0.25;;
15482;SDS011;7843;50.330;7.312;2023-04-24T01:04:37;0.80;;;0.30;;
15482;SDS011;7843;50.330;7.312;2023-04-24T01:07:04;0.45;;;0.30;;
15482;SDS011;7843;50.330;7.312;2023-04-24T01:09:37;1.10;;;0.40;;
15482;SDS011;7843;50.330;7.312;2023-04-24T01:12:06;0.85;;;0.30;;
15482;SDS011;7843;50.330;7.312;2023-04-24T01:14:33;0.50;;;0.50;;
15482;SDS011;7843;50.330;7.312;2023-04-24T01:17:00;0.63;;;0.40;;
15482;SDS011;7843;50.330;7.312;2023-04-24T01:19:27;0.60;;;0.40;;
15482;SDS011;7843;50.330;7.312;2023-04-24T01:21:54;0.40;;;0.40;;
15482;SDS011;7843;50.330;7.312;2023-04-24T01:24:24;0.30;;;0.30;;
15482;SDS011;7843;50.330;7.312;2023-04-24T01:26:51;0.47;;;0.40;;
15482;SDS011;7843;50.330;7.312;2023-04-24T01:29:18;0.80;;;0.50;;
15482;SDS011;7843;50.330;7.312;2023-04-24T01:31:45;1.85;;;0.35;;
15482;SDS011;7843;50.330;7.312;2023-04-24T01:34:12;0.50;;;0.50;;
15482;SDS011;7843;50.330;7.312;2023-04-24T01:36:38;1.10;;;0.30;;
15482;SDS011;7843;50.330;7.312;2023-04-24T01:39:07;0.40;;;0.40;;
15482;SDS011;7843;50.330;7.312;2023-04-24T01:41:34;1.63;;;0.40;;
15482;SDS011;7843;50.330;7.312;2023-04-24T01:44:01;2.60;;;0.47;;
15482;SDS011;7843;50.330;7.312;2023-04-24T01:46:28;0.40;;;0.40;;
15482;SDS011;7843;50.330;7.312;2023-04-24T01:48:55;1.00;;;0.32;;
15482;SDS011;7843;50.330;7.312;2023-04-24T01:51:22;0.90;;;0.65;;
15482;SDS011;7843;50.330;7.312;2023-04-24T01:53:49;0.70;;;0.50;;
15482;SDS011;7843;50.330;7.312;2023-04-24T01:56:15;0.50;;;0.50;;
15482;SDS011;7843;50.330;7.312;2023-04-24T01:58:42;1.27;;;0.57;;
15482;SDS011;7843;50.330;7.312;2023-04-24T02:01:09;0.70;;;0.55;;
15482;SDS011;7843;50.330;7.312;2023-04-24T02:03:43;0.70;;;0.63;;
15482;SDS011;7843;50.330;7.312;2023-04-24T02:06:10;1.23;;;0.80;;
15482;SDS011;7843;50.330;7.312;2023-04-24T02:08:37;1.23;;;0.68;;
15482;SDS011;7843;50.330;7.312;2023-04-24T02:11:04;1.35;;;0.65;;
15482;SDS011;7843;50.330;7.312;2023-04-24T02:13:30;5.28;;;0.90;;
15482;SDS011;7843;50.330;7.312;2023-04-24T02:16:00;0.98;;;0.70;;
15482;SDS011;7843;50.330;7.312;2023-04-24T02:18:27;1.30;;;0.85;;
15482;SDS011;7843;50.330;7.312;2023-04-24T02:20:54;1.20;;;1.10;;
15482;SDS011;7843;50.330;7.312;2023-04-24T02:23:20;1.38;;;0.93;;
15482;SDS011;7843;50.330;7.312;2023-04-24T02:25:47;1.60;;;1.30;;
15482;SDS011;7843;50.330;7.312;2023-04-24T02:28:14;1.77;;;1.23;;
15482;SDS011;7843;50.330;7.312;2023-04-24T02:30:41;2.85;;;1.17;;
15482;SDS011;7843;50.330;7.312;2023-04-24T02:33:08;1.58;;;1.08;;
15482;SDS011;7843;50.330;7.312;2023-04-24T02:35:34;1.80;;;1.20;;
15482;SDS011;7843;50.330;7.312;2023-04-24T02:38:01;8.13;;;1.45;;
15482;SDS011;7843;50.330;7.312;2023-04-24T02:40:28;1.65;;;1.13;;
15482;SDS011;7843;50.330;7.312;2023-04-24T02:42:54;3.70;;;1.20;;
15482;SDS011;7843;50.330;7.312;2023-04-24T02:45:21;3.22;;;1.27;;
15482;SDS011;7843;50.330;7.312;2023-04-24T02:47:48;2.90;;;1.40;;
15482;SDS011;7843;50.330;7.312;2023-04-24T02:50:14;2.03;;;1.63;;
15482;SDS011;7843;50.330;7.312;2023-04-24T02:52:41;1.33;;;1.02;;
15482;SDS011;7843;50.330;7.312;2023-04-24T02:55:08;3.08;;;1.60;;
15482;SDS011;7843;50.330;7.312;2023-04-24T02:57:34;2.78;;;1.60;;
15482;SDS011;7843;50.330;7.312;2023-04-24T03:00:01;3.60;;;1.80;;
15482;SDS011;7843;50.330;7.312;2023-04-24T03:02:29;2.15;;;1.50;;
15482;SDS011;7843;50.330;7.312;2023-04-24T03:04:55;2.45;;;1.70;;
15482;SDS011;7843;50.330;7.312;2023-04-24T03:07:23;3.92;;;1.90;;
15482;SDS011;7843;50.330;7.312;2023-04-24T03:09:50;3.45;;;1.50;;
15482;SDS011;7843;50.330;7.312;2023-04-24T03:12:16;2.95;;;1.67;;
15482;SDS011;7843;50.330;7.312;2023-04-24T03:14:46;2.78;;;1.50;;
15482;SDS011;7843;50.330;7.312;2023-04-24T03:17:13;4.13;;;1.73;;
15482;SDS011;7843;50.330;7.312;2023-04-24T03:19:39;2.70;;;1.88;;
15482;SDS011;7843;50.330;7.312;2023-04-24T03:22:06;4.38;;;1.58;;
15482;SDS011;7843;50.330;7.312;2023-04-24T03:24:35;5.20;;;1.90;;
15482;SDS011;7843;50.330;7.312;2023-04-24T03:27:01;5.65;;;1.92;;
15482;SDS011;7843;50.330;7.312;2023-04-24T03:29:28;1.83;;;1.52;;
15482;SDS011;7843;50.330;7.312;2023-04-24T03:31:55;2.00;;;1.65;;
15482;SDS011;7843;50.330;7.312;2023-04-24T03:34:22;5.05;;;1.90;;
15482;SDS011;7843;50.330;7.312;2023-04-24T03:36:48;1.92;;;1.40;;
15482;SDS011;7843;50.330;7.312;2023-04-24T03:39:15;1.85;;;1.48;;
15482;SDS011;7843;50.330;7.312;2023-04-24T03:41:42;2.80;;;1.48;;
15482;SDS011;7843;50.330;7.312;2023-04-24T03:44:09;2.70;;;1.70;;
15482;SDS011;7843;50.330;7.312;2023-04-24T03:46:35;2.65;;;1.42;;
15482;SDS011;7843;50.330;7.312;2023-04-24T03:49:02;2.42;;;1.42;;
15482;SDS011;7843;50.330;7.312;2023-04-24T03:51:29;1.98;;;1.67;;
15482;SDS011;7843;50.330;7.312;2023-04-24T03:53:57;4.05;;;1.40;;
15482;SDS011;7843;50.330;7.312;2023-04-24T03:56:24;5.15;;;1.80;;
15482;SDS011;7843;50.330;7.312;2023-04-24T03:58:50;2.08;;;1.27;;
15482;SDS011;7843;50.330;7.312;2023-04-24T04:01:17;3.45;;;1.65;;
15482;SDS011;7843;50.330;7.312;2023-04-24T04:03:45;3.57;;;1.57;;
15482;SDS011;7843;50.330;7.312;2023-04-24T04:06:11;3.33;;;1.93;;
15482;SDS011;7843;50.330;7.312;2023-04-24T04:08:39;2.72;;;1.90;;
15482;SDS011;7843;50.330;7.312;2023-04-24T04:11:05;2.00;;;1.70;;
15482;SDS011;7843;50.330;7.312;2023-04-24T04:13:32;2.75;;;1.63;;
15482;SDS011;7843;50.330;7.312;2023-04-24T04:15:59;4.90;;;1.90;;
15482;SDS011;7843;50.330;7.312;2023-04-24T04:18:25;4.17;;;2.10;;
15482;SDS011;7843;50.330;7.312;2023-04-24T04:20:52;7.13;;;1.70;;
15482;SDS011;7843;50.330;7.312;2023-04-24T04:23:19;3.15;;;1.75;;
15482;SDS011;7843;50.330;7.312;2023-04-24T04:25:45;3.63;;;1.80;;
15482;SDS011;7843;50.330;7.312;2023-04-24T04:28:13;2.37;;;1.70;;
15482;SDS011;7843;50.330;7.312;2023-04-24T04:30:39;2.70;;;2.07;;
15482;SDS011;7843;50.330;7.312;2023-04-24T04:33:07;5.57;;;1.93;;
15482;SDS011;7843;50.330;7.312;2023-04-24T04:35:34;3.88;;;2.35;;
15482;SDS011;7843;50.330;7.312;2023-04-24T04:38:01;2.20;;;1.65;;
15482;SDS011;7843;50.330;7.312;2023-04-24T04:40:27;3.10;;;2.08;;
15482;SDS011;7843;50.330;7.312;2023-04-24T04:42:54;3.25;;;1.90;;
15482;SDS011;7843;50.330;7.312;2023-04-24T04:45:21;3.20;;;2.10;;
15482;SDS011;7843;50.330;7.312;2023-04-24T04:47:50;3.00;;;1.77;;
15482;SDS011;7843;50.330;7.312;2023-04-24T04:50:16;2.33;;;1.83;;
15482;SDS011;7843;50.330;7.312;2023-04-24T04:52:44;2.42;;;1.92;;
15482;SDS011;7843;50.330;7.312;2023-04-24T04:55:11;3.30;;;1.90;;
15482;SDS011;7843;50.330;7.312;2023-04-24T04:57:41;4.95;;;2.30;;
15482;SDS011;7843;50.330;7.312;2023-04-24T05:00:08;3.40;;;2.20;;
15482;SDS011;7843;50.330;7.312;2023-04-24T05:02:37;4.77;;;2.50;;
15482;SDS011;7843;50.330;7.312;2023-04-24T05:05:05;4.28;;;2.78;;
15482;SDS011;7843;50.330;7.312;2023-04-24T05:07:33;3.78;;;2.50;;
15482;SDS011;7843;50.330;7.312;2023-04-24T05:10:00;3.20;;;2.47;;
15482;SDS011;7843;50.330;7.312;2023-04-24T05:12:26;3.97;;;2.53;;
15482;SDS011;7843;50.330;7.312;2023-04-24T05:14:53;3.58;;;2.58;;
15482;SDS011;7843;50.330;7.312;2023-04-24T05:17:19;4.28;;;3.13;;
15482;SDS011;7843;50.330;7.312;2023-04-24T05:19:46;3.90;;;3.07;;
15482;SDS011;7843;50.330;7.312;2023-04-24T05:22:14;4.22;;;2.78;;
15482;SDS011;7843;50.330;7.312;2023-04-24T05:24:41;7.30;;;3.10;;
15482;SDS011;7843;50.330;7.312;2023-04-24T05:27:07;6.70;;;3.22;;
15482;SDS011;7843;50.330;7.312;2023-04-24T05:29:34;3.50;;;2.58;;
15482;SDS011;7843;50.330;7.312;2023-04-24T05:32:01;4.70;;;3.00;;
15482;SDS011;7843;50.330;7.312;2023-04-24T05:34:28;5.70;;;3.20;;
15482;SDS011;7843;50.330;7.312;2023-04-24T05:36:55;3.72;;;2.60;;
15482;SDS011;7843;50.330;7.312;2023-04-24T05:39:21;5.47;;;2.72;;
15482;SDS011;7843;50.330;7.312;2023-04-24T05:41:48;6.03;;;3.65;;
15482;SDS011;7843;50.330;7.312;2023-04-24T05:44:15;4.43;;;3.20;;
15482;SDS011;7843;50.330;7.312;2023-04-24T05:46:41;6.15;;;3.15;;
15482;SDS011;7843;50.330;7.312;2023-04-24T05:49:08;6.75;;;3.17;;
15482;SDS011;7843;50.330;7.312;2023-04-24T05:51:35;5.60;;;3.22;;
15482;SDS011;7843;50.330;7.312;2023-04-24T05:54:01;4.93;;;3.30;;
15482;SDS011;7843;50.330;7.312;2023-04-24T05:56:29;5.30;;;3.25;;
15482;SDS011;7843;50.330;7.312;2023-04-24T05:58:56;6.75;;;3.60;;
15482;SDS011;7843;50.330;7.312;2023-04-24T06:01:22;5.97;;;3.17;;
15482;SDS011;7843;50.330;7.312;2023-04-24T06:03:49;4.03;;;2.97;;
15482;SDS011;7843;50.330;7.312;2023-04-24T06:06:16;4.80;;;3.13;;
15482;SDS011;7843;50.330;7.312;2023-04-24T06:08:42;5.30;;;3.10;;
15482;SDS011;7843;50.330;7.312;2023-04-24T06:11:10;6.20;;;3.25;;
15482;SDS011;7843;50.330;7.312;2023-04-24T06:13:36;6.13;;;3.03;;
15482;SDS011;7843;50.330;7.312;2023-04-24T06:16:04;4.13;;;3.35;;
15482;SDS011;7843;50.330;7.312;2023-04-24T06:18:31;7.13;;;3.57;;
15482;SDS011;7843;50.330;7.312;2023-04-24T06:20:58;4.72;;;3.28;;
15482;SDS011;7843;50.330;7.312;2023-04-24T06:23:24;5.22;;;3.55;;
15482;SDS011;7843;50.330;7.312;2023-04-24T06:25:51;6.20;;;3.03;;
15482;SDS011;7843;50.330;7.312;2023-04-24T06:28:18;5.53;;;3.33;;
15482;SDS011;7843;50.330;7.312;2023-04-24T06:30:44;4.35;;;3.20;;
15482;SDS011;7843;50.330;7.312;2023-04-24T06:33:11;4.78;;;3.25;;
15482;SDS011;7843;50.330;7.312;2023-04-24T06:35:44;4.82;;;3.22;;
15482;SDS011;7843;50.330;7.312;2023-04-24T06:38:11;4.03;;;3.30;;
15482;SDS011;7843;50.330;7.312;2023-04-24T06:40:38;5.28;;;2.92;;
15482;SDS011;7843;50.330;7.312;2023-04-24T06:43:05;4.77;;;2.97;;
15482;SDS011;7843;50.330;7.312;2023-04-24T06:45:32;6.68;;;3.33;;
15482;SDS011;7843;50.330;7.312;2023-04-24T06:47:59;4.22;;;3.08;;
15482;SDS011;7843;50.330;7.312;2023-04-24T06:50:25;5.25;;;3.03;;
15482;SDS011;7843;50.330;7.312;2023-04-24T06:52:52;5.22;;;3.03;;
15482;SDS011;7843;50.330;7.312;2023-04-24T06:55:19;6.38;;;2.80;;
15482;SDS011;7843;50.330;7.312;2023-04-24T06:57:45;4.43;;;2.90;;
15482;SDS011;7843;50.330;7.312;2023-04-24T07:00:12;6.10;;;2.72;;
15482;SDS011;7843;50.330;7.312;2023-04-24T07:02:39;4.15;;;2.97;;
15482;SDS011;7843;50.330;7.312;2023-04-24T07:05:06;4.85;;;2.90;;
15482;SDS011;7843;50.330;7.312;2023-04-24T07:07:34;5.15;;;2.80;;
15482;SDS011;7843;50.330;7.312;2023-04-24T07:10:04;6.45;;;3.00;;
15482;SDS011;7843;50.330;7.312;2023-04-24T07:12:31;4.38;;;3.00;;
15482;SDS011;7843;50.330;7.312;2023-04-24T07:15:00;4.90;;;2.78;;
15482;SDS011;7843;50.330;7.312;2023-04-24T07:17:26;7.13;;;3.08;;
15482;SDS011;7843;50.330;7.312;2023-04-24T07:19:53;4.28;;;2.83;;
15482;SDS011;7843;50.330;7.312;2023-04-24T07:22:20;4.85;;;2.55;;
15482;SDS011;7843;50.330;7.312;2023-04-24T07:24:46;2.88;;;2.22;;
15482;SDS011;7843;50.330;7.312;2023-04-24T07:27:13;4.63;;;2.20;;
15482;SDS011;7843;50.330;7.312;2023-04-24T07:29:41;3.50;;;2.28;;
15482;SDS011;7843;50.330;7.312;2023-04-24T07:32:08;3.67;;;2.30;;
15482;SDS011;7843;50.330;7.312;2023-04-24T07:34:35;3.38;;;2.20;;
15482;SDS011;7843;50.330;7.312;2023-04-24T07:37:01;3.13;;;2.30;;
15482;SDS011;7843;50.330;7.312;2023-04-24T07:39:29;2.88;;;2.05;;
15482;SDS011;7843;50.330;7.312;2023-04-24T07:41:56;4.30;;;2.03;;
15482;SDS011;7843;50.330;7.312;2023-04-24T07:44:24;5.22;;;2.38;;
15482;SDS011;7843;50.330;7.312;2023-04-24T07:46:51;3.90;;;2.13;;
15482;SDS011;7843;50.330;7.312;2023-04-24T07:49:18;3.47;;;1.88;;
15482;SDS011;7843;50.330;7.312;2023-04-24T07:51:45;2.85;;;1.95;;
15482;SDS011;7843;50.330;7.312;2023-04-24T07:54:12;1.73;;;1.48;;
15482;SDS011;7843;50.330;7.312;2023-04-24T07:56:38;2.55;;;1.75;;
15482;SDS011;7843;50.330;7.312;2023-04-24T07:59:07;2.53;;;1.70;;
15482;SDS011;7843;50.330;7.312;2023-04-24T08:01:36;2.15;;;1.60;;
15482;SDS011;7843;50.330;7.312;2023-04-24T08:04:02;2.60;;;1.90;;
15482;SDS011;7843;50.330;7.312;2023-04-24T08:06:29;2.65;;;1.60;;
15482;SDS011;7843;50.330;7.312;2023-04-24T08:08:56;2.63;;;1.73;;
15482;SDS011;7843;50.330;7.312;2023-04-24T08:11:24;3.40;;;1.80;;
15482;SDS011;7843;50.330;7.312;2023-04-24T08:13:51;3.80;;;1.60;;
15482;SDS011;7843;50.330;7.312;2023-04-24T08:16:18;2.17;;;1.60;;
15482;SDS011;7843;50.330;7.312;2023-04-24T08:18:44;2.50;;;1.60;;
15482;SDS011;7843;50.330;7.312;2023-04-24T08:21:11;2.00;;;1.63;;
15482;SDS011;7843;50.330;7.312;2023-04-24T08:23:43;4.30;;;1.70;;
15482;SDS011;7843;50.330;7.312;2023-04-24T08:26:10;1.80;;;1.52;;
15482;SDS011;7843;50.330;7.312;2023-04-24T08:28:37;5.95;;;1.88;;
15482;SDS011;7843;50.330;7.312;2023-04-24T08:31:04;2.42;;;1.80;;
15482;SDS011;7843;50.330;7.312;2023-04-24T08:33:31;4.03;;;1.70;;
15482;SDS011;7843;50.330;7.312;2023-04-24T08:36:01;2.22;;;1.50;;
15482;SDS011;7843;50.330;7.312;2023-04-24T08:38:29;1.58;;;1.08;;
15482;SDS011;7843;50.330;7.312;2023-04-24T08:40:57;2.22;;;1.67;;
15482;SDS011;7843;50.330;7.312;2023-04-24T08:43:26;2.08;;;1.50;;
15482;SDS011;7843;50.330;7.312;2023-04-24T08:45:55;1.42;;;1.23;;
15482;SDS011;7843;50.330;7.312;2023-04-24T08:48:22;2.15;;;1.15;;
15482;SDS011;7843;50.330;7.312;2023-04-24T08:50:55;1.77;;;1.02;;
15482;SDS011;7843;50.330;7.312;2023-04-24T08:53:24;2.50;;;1.17;;
15482;SDS011;7843;50.330;7.312;2023-04-24T08:55:51;1.40;;;0.90;;
15482;SDS011;7843;50.330;7.312;2023-04-24T08:58:21;2.03;;;1.03;;
15482;SDS011;7843;50.330;7.312;2023-04-24T09:00:49;1.50;;;1.13;;
15482;SDS011;7843;50.330;7.312;2023-04-24T09:03:15;0.65;;;0.50;;
15482;SDS011;7843;50.330;7.312;2023-04-24T09:05:43;1.00;;;0.70;;
15482;SDS011;7843;50.330;7.312;2023-04-24T09:08:12;1.20;;;0.60;;
15482;SDS011;7843;50.330;7.312;2023-04-24T09:10:40;0.80;;;0.70;;
15482;SDS011;7843;50.330;7.312;2023-04-24T09:13:07;1.25;;;0.80;;
15482;SDS011;7843;50.330;7.312;2023-04-24T09:15:38;1.17;;;0.68;;
15482;SDS011;7843;50.330;7.312;2023-04-24T09:18:06;0.70;;;0.70;;
15482;SDS011;7843;50.330;7.312;2023-04-24T09:20:33;1.05;;;0.50;;
15482;SDS011;7843;50.330;7.312;2023-04-24T09:23:02;0.88;;;0.70;;
15482;SDS011;7843;50.330;7.312;2023-04-24T09:25:31;0.95;;;0.70;;
15482;SDS011;7843;50.330;7.312;2023-04-24T09:28:02;1.73;;;0.70;;
15482;SDS011;7843;50.330;7.312;2023-04-24T09:30:30;1.70;;;1.00;;
15482;SDS011;7843;50.330;7.312;2023-04-24T09:33:10;2.40;;;0.77;;
15482;SDS011;7843;50.330;7.312;2023-04-24T09:35:42;1.10;;;0.90;;
15482;SDS011;7843;50.330;7.312;2023-04-24T09:38:16;0.90;;;0.80;;
15482;SDS011;7843;50.330;7.312;2023-04-24T09:40:43;0.90;;;0.80;;
15482;SDS011;7843;50.330;7.312;2023-04-24T09:43:10;1.55;;;0.90;;
15482;SDS011;7843;50.330;7.312;2023-04-24T09:45:38;1.08;;;0.70;;
15482;SDS011;7843;50.330;7.312;2023-04-24T09:48:08;0.88;;;0.60;;
15482;SDS011;7843;50.330;7.312;2023-04-24T09:50:36;1.15;;;0.65;;
15482;SDS011;7843;50.330;7.312;2023-04-24T09:53:03;1.08;;;0.70;;
15482;SDS011;7843;50.330;7.312;2023-04-24T09:55:31;0.93;;;0.80;;
15482;SDS011;7843;50.330;7.312;2023-04-24T09:57:58;1.10;;;0.90;;
15482;SDS011;7843;50.330;7.312;2023-04-24T10:00:30;1.48;;;0.80;;
15482;SDS011;7843;50.330;7.312;2023-04-24T10:03:01;1.20;;;0.70;;
15482;SDS011;7843;50.330;7.312;2023-04-24T10:05:33;1.25;;;1.10;;
15482;SDS011;7843;50.330;7.312;2023-04-24T10:08:05;3.57;;;1.27;;
15482;SDS011;7843;50.330;7.312;2023-04-24T10:10:34;3.60;;;1.30;;
15482;SDS011;7843;50.330;7.312;2023-04-24T10:13:04;1.83;;;1.20;;
15482;SDS011;7843;50.330;7.312;2023-04-24T10:15:31;1.73;;;1.30;;
15482;SDS011;7843;50.330;7.312;2023-04-24T10:17:58;2.03;;;1.40;;
15482;SDS011;7843;50.330;7.312;2023-04-24T10:20:27;2.67;;;1.60;;
15482;SDS011;7843;50.330;7.312;2023-04-24T10:22:58;2.03;;;1.53;;
15482;SDS011;7843;50.330;7.312;2023-04-24T10:25:27;2.20;;;1.80;;
15482;SDS011;7843;50.330;7.312;2023-04-24T10:27:58;2.80;;;1.90;;
15482;SDS011;7843;50.330;7.312;2023-04-24T10:30:27;2.50;;;1.98;;
15482;SDS011;7843;50.330;7.312;2023-04-24T10:33:05;3.33;;;2.10;;
15482;SDS011;7843;50.330;7.312;2023-04-24T10:35:34;4.70;;;2.20;;
15482;SDS011;7843;50.330;7.312;2023-04-24T10:38:14;4.07;;;2.30;;
15482;SDS011;7843;50.330;7.312;2023-04-24T10:40:44;4.65;;;2.40;;
15482;SDS011;7843;50.330;7.312;2023-04-24T10:43:11;5.88;;;2.42;;
15482;SDS011;7843;50.330;7.312;2023-04-24T10:45:59;3.90;;;2.63;;
15482;SDS011;7843;50.330;7.312;2023-04-24T10:48:28;3.45;;;1.80;;
15482;SDS011;7843;50.330;7.312;2023-04-24T10:50:55;4.05;;;2.13;;
15482;SDS011;7843;50.330;7.312;2023-04-24T10:53:22;4.90;;;2.80;;
15482;SDS011;7843;50.330;7.312;2023-04-24T10:56:05;5.43;;;2.80;;
15482;SDS011;7843;50.330;7.312;2023-04-24T10:58:42;4.57;;;2.72;;
15482;SDS011;7843;50.330;7.312;2023-04-24T11:01:32;6.68;;;2.60;;
15482;SDS011;7843;50.330;7.312;2023-04-24T11:03:59;2.90;;;2.10;;
15482;SDS011;7843;50.330;7.312;2023-04-24T11:06:36;4.93;;;2.85;;
15482;SDS011;7843;50.330;7.312;2023-04-24T11:09:09;3.63;;;2.50;;
15482;SDS011;7843;50.330;7.312;2023-04-24T11:11:38;4.20;;;2.72;;
15482;SDS011;7843;50.330;7.312;2023-04-24T11:14:16;5.27;;;2.80;;
15482;SDS011;7843;50.330;7.312;2023-04-24T11:16:44;4.78;;;3.08;;
15482;SDS011;7843;50.330;7.312;2023-04-24T11:19:18;4.57;;;2.38;;
15482;SDS011;7843;50.330;7.312;2023-04-24T11:35:00;5.45;;;2.85;;
15482;SDS011;7843;50.330;7.312;2023-04-24T11:37:28;5.57;;;2.50;;
15482;SDS011;7843;50.330;7.312;2023-04-24T11:40:03;4.80;;;2.25;;
15482;SDS011;7843;50.330;7.312;2023-04-24T11:42:35;3.95;;;2.20;;
15482;SDS011;7843;50.330;7.312;2023-04-24T11:45:10;3.75;;;2.33;;
15482;SDS011;7843;50.330;7.312;2023-04-24T11:47:38;3.27;;;2.00;;
15482;SDS011;7843;50.330;7.312;2023-04-24T11:50:07;5.15;;;2.08;;
15482;SDS011;7843;50.330;7.312;2023-04-24T11:52:39;2.80;;;2.03;;
15482;SDS011;7843;50.330;7.312;2023-04-24T11:55:08;3.80;;;2.00;;
15482;SDS011;7843;50.330;7.312;2023-04-24T11:57:49;2.40;;;1.88;;
15482;SDS011;7843;50.330;7.312;2023-04-24T12:00:21;5.00;;;1.90;;
15482;SDS011;7843;50.330;7.312;2023-04-24T12:02:49;3.63;;;2.05;;
15482;SDS011;7843;50.330;7.312;2023-04-24T12:05:20;4.00;;;1.75;;
15482;SDS011;7843;50.330;7.312;2023-04-24T12:07:52;3.72;;;2.03;;
15482;SDS011;7843;50.330;7.312;2023-04-24T12:10:22;3.95;;;2.30;;
15482;SDS011;7843;50.330;7.312;2023-04-24T12:12:50;3.67;;;2.08;;
15482;SDS011;7843;50.330;7.312;2023-04-24T12:15:18;4.30;;;2.10;;
15482;SDS011;7843;50.330;7.312;2023-04-24T12:17:46;4.25;;;2.10;;
15482;SDS011;7843;50.330;7.312;2023-04-24T12:20:13;5.47;;;2.50;;
15482;SDS011;7843;50.330;7.312;2023-04-24T12:22:53;5.38;;;2.25;;
15482;SDS011;7843;50.330;7.312;2023-04-24T12:25:21;4.10;;;2.00;;
15482;SDS011;7843;50.330;7.312;2023-04-24T12:27:53;2.72;;;1.80;;
15482;SDS011;7843;50.330;7.312;2023-04-24T12:30:25;3.25;;;1.95;;
15482;SDS011;7843;50.330;7.312;2023-04-24T12:32:56;3.15;;;1.73;;
15482;SDS011;7843;50.330;7.312;2023-04-24T12:35:25;2.67;;;1.70;;
15482;SDS011;7843;50.330;7.312;2023-04-24T12:38:07;3.87;;;2.10;;
15482;SDS011;7843;50.330;7.312;2023-04-24T12:40:36;5.10;;;1.88;;
15482;SDS011;7843;50.330;7.312;2023-04-24T12:43:12;1.95;;;1.40;;
15482;SDS011;7843;50.330;7.312;2023-04-24T12:45:43;4.60;;;1.60;;
15482;SDS011;7843;50.330;7.312;2023-04-24T12:48:11;4.53;;;1.60;;
15482;SDS011;7843;50.330;7.312;2023-04-24T12:50:40;3.67;;;2.00;;
15482;SDS011;7843;50.330;7.312;2023-04-24T12:53:07;3.08;;;2.00;;
15482;SDS011;7843;50.330;7.312;2023-04-24T12:55:35;3.33;;;2.00;;
15482;SDS011;7843;50.330;7.312;2023-04-24T12:58:01;3.03;;;1.93;;
15482;SDS011;7843;50.330;7.312;2023-04-24T13:00:29;4.95;;;2.40;;
15482;SDS011;7843;50.330;7.312;2023-04-24T13:02:56;7.00;;;2.13;;
15482;SDS011;7843;50.330;7.312;2023-04-24T13:05:22;4.95;;;2.40;;
15482;SDS011;7843;50.330;7.312;2023-04-24T13:07:50;5.68;;;2.63;;
15482;SDS011;7843;50.330;7.312;2023-04-24T13:10:17;4.45;;;2.22;;
15482;SDS011;7843;50.330;7.312;2023-04-24T13:12:43;4.70;;;2.10;;
15482;SDS011;7843;50.330;7.312;2023-04-24T13:15:12;4.38;;;1.90;;
15482;SDS011;7843;50.330;7.312;2023-04-24T13:17:39;4.95;;;2.15;;
15482;SDS011;7843;50.330;7.312;2023-04-24T13:20:06;3.10;;;1.57;;
15482;SDS011;7843;50.330;7.312;2023-04-24T13:22:33;4.68;;;1.80;;
15482;SDS011;7843;50.330;7.312;2023-04-24T13:24:59;3.72;;;1.75;;
15482;SDS011;7843;50.330;7.312;2023-04-24T13:27:27;3.33;;;2.33;;
15482;SDS011;7843;50.330;7.312;2023-04-24T13:29:54;3.80;;;2.08;;
15482;SDS011;7843;50.330;7.312;2023-04-24T13:32:21;3.30;;;1.77;;
15482;SDS011;7843;50.330;7.312;2023-04-24T13:34:47;5.28;;;2.03;;
15482;SDS011;7843;50.330;7.312;2023-04-24T13:37:14;3.47;;;2.13;;
15482;SDS011;7843;50.330;7.312;2023-04-24T13:39:41;4.22;;;2.05;;
15482;SDS011;7843;50.330;7.312;2023-04-24T13:42:08;3.78;;;2.13;;
15482;SDS011;7843;50.330;7.312;2023-04-24T13:44:35;3.03;;;1.98;;
15482;SDS011;7843;50.330;7.312;2023-04-24T13:47:01;4.35;;;1.70;;
15482;SDS011;7843;50.330;7.312;2023-04-24T13:49:28;3.05;;;2.03;;
15482;SDS011;7843;50.330;7.312;2023-04-24T13:51:55;2.42;;;1.80;;
15482;SDS011;7843;50.330;7.312;2023-04-24T13:54:23;6.80;;;2.17;;
15482;SDS011;7843;50.330;7.312;2023-04-24T13:56:51;2.80;;;2.05;;
15482;SDS011;7843;50.330;7.312;2023-04-24T13:59:19;3.72;;;1.90;;
15482;SDS011;7843;50.330;7.312;2023-04-24T14:01:47;5.45;;;1.90;;
15482;SDS011;7843;50.330;7.312;2023-04-24T14:04:17;3.77;;;2.03;;
15482;SDS011;7843;50.330;7.312;2023-04-24T14:06:43;4.47;;;2.28;;
15482;SDS011;7843;50.330;7.312;2023-04-24T14:09:10;5.10;;;2.00;;
15482;SDS011;7843;50.330;7.312;2023-04-24T14:11:37;2.90;;;1.77;;
15482;SDS011;7843;50.330;7.312;2023-04-24T14:14:04;3.25;;;1.80;;
15482;SDS011;7843;50.330;7.312;2023-04-24T14:16:31;7.45;;;2.20;;
15482;SDS011;7843;50.330;7.312;2023-04-24T14:18:58;3.33;;;1.73;;
15482;SDS011;7843;50.330;7.312;2023-04-24T14:21:24;4.83;;;2.00;;
15482;SDS011;7843;50.330;7.312;2023-04-24T14:23:51;5.22;;;1.73;;
15482;SDS011;7843;50.330;7.312;2023-04-24T14:26:18;4.57;;;1.95;;
15482;SDS011;7843;50.330;7.312;2023-04-24T14:28:45;4.65;;;1.88;;
15482;SDS011;7843;50.330;7.312;2023-04-24T14:31:12;3.72;;;1.90;;
15482;SDS011;7843;50.330;7.312;2023-04-24T14:33:39;3.00;;;1.83;;
15482;SDS011;7843;50.330;7.312;2023-04-24T14:36:06;3.00;;;1.70;;
15482;SDS011;7843;50.330;7.312;2023-04-24T14:38:32;4.43;;;2.03;;
15482;SDS011;7843;50.330;7.312;2023-04-24T14:41:00;4.95;;;1.50;;
15482;SDS011;7843;50.330;7.312;2023-04-24T14:43:31;3.10;;;1.53;;
15482;SDS011;7843;50.330;7.312;2023-04-24T14:45:58;3.00;;;1.95;;
15482;SDS011;7843;50.330;7.312;2023-04-24T14:48:25;1.70;;;1.52;;
15482;SDS011;7843;50.330;7.312;2023-04-24T14:50:52;2.40;;;1.90;;
15482;SDS011;7843;50.330;7.312;2023-04-24T14:53:18;3.50;;;2.05;;
15482;SDS011;7843;50.330;7.312;2023-04-24T14:55:45;3.03;;;2.20;;
15482;SDS011;7843;50.330;7.312;2023-04-24T14:58:12;4.30;;;2.15;;
15482;SDS011;7843;50.330;7.312;2023-04-24T15:00:38;3.75;;;2.33;;
15482;SDS011;7843;50.330;7.312;2023-04-24T15:03:05;3.65;;;2.20;;
15482;SDS011;7843;50.330;7.312;2023-04-24T15:05:33;5.40;;;2.20;;
15482;SDS011;7843;50.330;7.312;2023-04-24T15:08:00;6.97;;;3.03;;
15482;SDS011;7843;50.330;7.312;2023-04-24T15:10:26;2.05;;;1.77;;
15482;SDS011;7843;50.330;7.312;2023-04-24T15:12:55;5.47;;;2.08;;
15482;SDS011;7843;50.330;7.312;2023-04-24T15:15:21;3.90;;;2.05;;
15482;SDS011;7843;50.330;7.312;2023-04-24T15:17:48;3.17;;;1.88;;